createdAt,value
2022-12-31T00:00:42.248Z,22.10
2022-12-31T00:03:45.031Z,23.33
2022-12-31T00:06:47.645Z,22.03
2022-12-31T00:09:49.758Z,20.60
2022-12-31T00:12:51.807Z,23.77
2022-12-31T00:15:53.917Z,22.50
2022-12-31T00:19:01.597Z,23.00
2022-12-31T00:22:03.674Z,22.13
2022-12-31T00:25:06.444Z,20.90
2022-12-31T00:28:08.565Z,23.00
2022-12-31T00:31:19.967Z,24.97
2022-12-31T00:34:22.197Z,23.97
2022-12-31T00:37:24.167Z,20.43
2022-12-31T00:40:26.141Z,18.93
2022-12-31T00:43:28.240Z,20.83
2022-12-31T00:46:32.043Z,20.13
2022-12-31T00:49:34.146Z,18.27
2022-12-31T00:52:36.278Z,19.17
2022-12-31T00:55:38.429Z,18.67
2022-12-31T00:58:41.230Z,18.17
2022-12-31T01:01:43.838Z,16.27
2022-12-31T01:04:46.004Z,16.40
2022-12-31T01:07:48.085Z,18.03
2022-12-31T01:11:09.007Z,19.77
2022-12-31T01:14:17.578Z,18.63
2022-12-31T01:17:19.842Z,19.23
2022-12-31T01:20:21.958Z,22.83
2022-12-31T01:23:23.932Z,21.10
2022-12-31T01:26:27.447Z,18.53
2022-12-31T01:29:29.906Z,19.90
2022-12-31T01:32:31.961Z,19.00
2022-12-31T01:35:37.223Z,17.70
2022-12-31T01:38:39.902Z,21.47
2022-12-31T01:41:44.569Z,20.57
2022-12-31T01:44:52.812Z,18.23
2022-12-31T01:48:00.241Z,20.47
2022-12-31T01:51:02.382Z,21.13
2022-12-31T01:54:08.457Z,19.63
2022-12-31T01:57:12.201Z,20.40
2022-12-31T02:00:14.991Z,20.40
2022-12-31T02:03:21.944Z,21.27
2022-12-31T02:06:40.820Z,19.50
2022-12-31T02:09:43.146Z,18.30
2022-12-31T02:12:46.084Z,21.47
2022-12-31T02:16:13.307Z,18.30
2022-12-31T02:19:40.047Z,18.93
2022-12-31T02:23:23.092Z,19.40
2022-12-31T02:26:50.053Z,19.47
2022-12-31T02:30:09.255Z,21.23
2022-12-31T02:33:21.204Z,18.43
2022-12-31T02:36:28.386Z,19.13
2022-12-31T02:39:31.616Z,18.73
2022-12-31T02:42:33.727Z,17.13
2022-12-31T02:45:42.906Z,18.90
2022-12-31T02:48:53.000Z,19.63
2022-12-31T02:52:05.437Z,18.70
2022-12-31T02:55:25.900Z,19.93
2022-12-31T02:58:56.721Z,20.00
2022-12-31T03:02:14.913Z,17.53
2022-12-31T03:05:21.432Z,18.77
2022-12-31T03:08:26.985Z,18.03
2022-12-31T03:11:47.648Z,17.80
2022-12-31T03:14:50.401Z,18.43
2022-12-31T03:18:08.924Z,18.53
2022-12-31T03:21:32.185Z,18.23
2022-12-31T03:24:52.635Z,19.53
2022-12-31T03:27:54.721Z,18.93
2022-12-31T03:30:59.783Z,19.07
2022-12-31T03:34:01.908Z,18.90
2022-12-31T03:37:04.079Z,19.43
2022-12-31T03:40:08.174Z,15.57
2022-12-31T03:43:10.449Z,13.87
2022-12-31T03:46:12.547Z,18.53
2022-12-31T03:49:14.947Z,16.70
2022-12-31T03:52:17.126Z,16.60
2022-12-31T03:55:19.365Z,16.23
2022-12-31T03:58:22.739Z,16.67
2022-12-31T04:01:25.672Z,16.93
2022-12-31T04:04:27.868Z,16.63
2022-12-31T04:07:29.967Z,14.90
2022-12-31T04:10:31.990Z,17.33
2022-12-31T04:13:34.230Z,18.47
2022-12-31T04:16:36.320Z,18.77
2022-12-31T04:19:38.421Z,16.97
2022-12-31T04:22:40.457Z,16.33
2022-12-31T04:25:42.749Z,17.10
2022-12-31T04:28:46.286Z,18.53
2022-12-31T04:31:48.958Z,16.80
2022-12-31T04:34:51.046Z,16.57
2022-12-31T04:37:53.095Z,14.37
2022-12-31T04:41:13.843Z,15.53
2022-12-31T04:44:16.267Z,16.23
2022-12-31T04:47:23.409Z,16.47
2022-12-31T04:50:26.071Z,14.30
2022-12-31T04:53:28.607Z,15.43
2022-12-31T04:56:31.093Z,15.10
2022-12-31T04:59:33.212Z,14.87
2022-12-31T05:02:35.362Z,15.77
2022-12-31T05:05:42.843Z,13.77
2022-12-31T05:08:45.248Z,15.90
2022-12-31T05:11:47.244Z,16.07
2022-12-31T05:14:49.251Z,16.77
2022-12-31T05:17:51.330Z,16.70
2022-12-31T05:20:53.435Z,15.30
2022-12-31T05:23:55.641Z,13.43
2022-12-31T05:26:57.685Z,14.80
2022-12-31T05:30:00.320Z,13.30
2022-12-31T05:33:02.348Z,13.53
2022-12-31T05:36:04.877Z,13.17
2022-12-31T05:39:06.942Z,12.43
2022-12-31T05:42:09.086Z,12.63
2022-12-31T05:45:13.695Z,11.63
2022-12-31T05:48:15.747Z,10.50
2022-12-31T05:51:17.801Z,10.57
2022-12-31T05:54:19.907Z,9.90
2022-12-31T05:57:21.977Z,7.93
2022-12-31T06:00:24.068Z,7.00
2022-12-31T06:03:26.162Z,6.37
2022-12-31T06:06:28.264Z,5.60
2022-12-31T06:09:30.353Z,4.67
2022-12-31T06:12:32.549Z,4.50
2022-12-31T06:15:38.922Z,4.17
2022-12-31T06:18:40.989Z,3.20
2022-12-31T06:21:43.058Z,3.07
2022-12-31T06:24:45.081Z,2.90
2022-12-31T06:27:47.309Z,2.50
2022-12-31T06:30:49.390Z,2.67
2022-12-31T06:33:53.323Z,2.20
2022-12-31T06:36:55.331Z,2.03
2022-12-31T06:39:57.336Z,1.47
2022-12-31T06:43:00.330Z,1.63
2022-12-31T06:46:07.588Z,2.03
2022-12-31T06:49:09.722Z,1.77
2022-12-31T06:52:11.817Z,1.60
2022-12-31T06:55:14.416Z,1.47
2022-12-31T06:58:17.666Z,1.20
2022-12-31T07:01:41.619Z,2.00
2022-12-31T07:05:18.968Z,2.07
2022-12-31T07:08:36.011Z,3.27
2022-12-31T07:12:01.661Z,2.07
2022-12-31T07:15:27.650Z,1.87
2022-12-31T07:18:55.227Z,2.13
2022-12-31T07:21:59.186Z,2.27
2022-12-31T07:25:01.588Z,2.30
2022-12-31T07:28:21.637Z,3.30
2022-12-31T07:32:05.094Z,3.73
2022-12-31T07:35:37.768Z,10.23
2022-12-31T07:39:00.883Z,8.13
2022-12-31T07:42:32.368Z,15.20
2022-12-31T07:46:04.670Z,10.03
2022-12-31T07:49:14.046Z,9.20
2022-12-31T07:52:16.533Z,7.97
2022-12-31T07:55:18.608Z,6.00
2022-12-31T07:58:41.273Z,5.00
2022-12-31T08:01:55.345Z,3.77
2022-12-31T08:05:15.927Z,4.13
2022-12-31T08:08:41.340Z,4.17
2022-12-31T08:11:59.529Z,2.67
2022-12-31T08:15:02.001Z,2.20
2022-12-31T08:18:05.294Z,2.90
2022-12-31T08:21:35.057Z,2.10
2022-12-31T08:25:04.455Z,1.47
2022-12-31T08:28:38.235Z,1.40
2022-12-31T08:32:00.494Z,1.00
2022-12-31T08:35:19.577Z,1.50
2022-12-31T08:38:42.805Z,1.20
2022-12-31T08:41:47.967Z,2.50
2022-12-31T08:45:05.493Z,2.20
2022-12-31T08:48:25.331Z,1.73
2022-12-31T08:51:28.067Z,2.40
2022-12-31T08:54:30.695Z,2.10
2022-12-31T08:57:41.536Z,2.17
2022-12-31T09:00:48.464Z,2.00
2022-12-31T09:04:25.511Z,1.63
2022-12-31T09:07:40.010Z,2.40
2022-12-31T09:10:45.091Z,2.30
2022-12-31T09:14:32.827Z,2.20
2022-12-31T09:17:44.145Z,1.90
2022-12-31T09:20:46.441Z,2.50
2022-12-31T09:23:48.709Z,2.33
2022-12-31T09:26:58.329Z,2.30
2022-12-31T09:30:19.277Z,1.67
2022-12-31T09:33:43.190Z,1.50
2022-12-31T09:36:50.908Z,1.07
2022-12-31T09:39:57.349Z,0.80
2022-12-31T09:42:59.420Z,1.10
2022-12-31T09:46:26.005Z,1.20
2022-12-31T09:49:46.481Z,0.80
2022-12-31T09:53:23.878Z,0.90
2022-12-31T09:57:08.119Z,0.77
2022-12-31T10:00:34.573Z,2.60
2022-12-31T10:03:48.754Z,11.17
2022-12-31T10:07:02.755Z,14.37
2022-12-31T10:10:08.122Z,17.33
2022-12-31T10:13:25.031Z,23.37
2022-12-31T10:16:29.833Z,21.17
2022-12-31T10:19:49.379Z,21.37
2022-12-31T10:23:16.270Z,21.67
2022-12-31T10:26:25.292Z,19.77
2022-12-31T10:29:39.220Z,20.13
2022-12-31T10:33:12.212Z,22.40
2022-12-31T10:36:26.633Z,22.97
2022-12-31T10:39:49.668Z,20.90
2022-12-31T10:43:16.867Z,17.60
2022-12-31T10:46:56.273Z,10.70
2022-12-31T10:50:16.685Z,2.90
2022-12-31T10:53:37.094Z,5.10
2022-12-31T10:57:16.155Z,4.77
2022-12-31T11:00:22.635Z,2.27
2022-12-31T11:03:54.561Z,1.77
2022-12-31T11:07:28.331Z,3.30
2022-12-31T11:10:57.130Z,2.00
2022-12-31T11:14:28.638Z,2.10
2022-12-31T11:17:52.380Z,2.37
2022-12-31T11:21:00.500Z,26.13
2022-12-31T11:24:35.741Z,24.97
2022-12-31T11:28:09.472Z,24.73
2022-12-31T11:31:27.875Z,26.77
2022-12-31T11:35:12.564Z,24.83
2022-12-31T11:38:17.354Z,25.23
2022-12-31T11:41:31.237Z,23.07
2022-12-31T11:45:10.044Z,23.10
2022-12-31T11:48:32.999Z,24.23
2022-12-31T11:52:25.287Z,23.00
2022-12-31T11:55:47.745Z,23.73
2022-12-31T11:58:55.525Z,22.90
2022-12-31T12:02:19.229Z,20.23
2022-12-31T12:05:24.095Z,18.83
2022-12-31T12:08:29.640Z,19.40
2022-12-31T12:11:35.684Z,19.37
2022-12-31T12:14:40.402Z,19.63
2022-12-31T12:17:42.424Z,19.63
2022-12-31T12:20:51.824Z,18.43
2022-12-31T12:24:04.275Z,18.37
2022-12-31T12:27:21.929Z,17.83
2022-12-31T12:30:27.669Z,17.70
2022-12-31T12:33:42.167Z,15.80
2022-12-31T12:36:47.799Z,15.10
2022-12-31T12:40:03.931Z,15.63
2022-12-31T12:43:07.127Z,15.27
2022-12-31T12:46:35.770Z,18.57
2022-12-31T12:49:42.660Z,20.60
2022-12-31T12:53:00.640Z,18.90
2022-12-31T12:56:22.968Z,18.70
2022-12-31T12:59:45.517Z,20.07
2022-12-31T13:03:08.911Z,19.70
2022-12-31T13:06:22.743Z,19.03
2022-12-31T13:10:04.575Z,17.60
2022-12-31T13:13:24.653Z,19.13
2022-12-31T13:16:36.149Z,18.60
2022-12-31T13:19:45.468Z,17.70
2022-12-31T13:23:00.409Z,17.77
2022-12-31T13:26:28.173Z,16.30
2022-12-31T13:29:33.483Z,14.30
2022-12-31T13:32:42.794Z,13.17
2022-12-31T13:36:08.103Z,11.50
2022-12-31T13:39:21.289Z,15.03
2022-12-31T13:42:36.364Z,17.60
2022-12-31T13:45:43.573Z,19.17
2022-12-31T13:48:56.737Z,19.97
2022-12-31T13:52:22.314Z,18.93
2022-12-31T13:55:31.388Z,19.20
2022-12-31T13:58:56.693Z,18.10
2022-12-31T14:02:05.091Z,19.57
2022-12-31T14:05:19.059Z,17.43
2022-12-31T14:08:21.250Z,18.77
2022-12-31T14:11:53.317Z,19.13
2022-12-31T14:15:14.013Z,16.80
2022-12-31T14:18:35.842Z,16.53
2022-12-31T14:21:59.796Z,18.23
2022-12-31T14:25:06.494Z,19.60
2022-12-31T14:28:19.824Z,20.90
2022-12-31T14:31:28.220Z,19.00
2022-12-31T14:34:56.661Z,22.53
2022-12-31T14:38:29.032Z,19.33
2022-12-31T14:42:00.384Z,20.87
2022-12-31T14:45:39.826Z,20.33
2022-12-31T14:49:16.663Z,21.37
2022-12-31T14:52:31.411Z,21.17
2022-12-31T14:55:41.140Z,22.33
2022-12-31T14:58:43.915Z,20.47
2022-12-31T15:01:46.075Z,24.23
2022-12-31T15:04:48.210Z,22.40
2022-12-31T15:07:56.156Z,20.77
2022-12-31T15:10:58.101Z,22.43
2022-12-31T15:14:37.521Z,20.90
2022-12-31T15:18:07.726Z,18.00
2022-12-31T15:21:31.460Z,11.80
2022-12-31T15:24:33.525Z,12.10
2022-12-31T15:27:39.196Z,9.23
2022-12-31T15:30:47.653Z,6.50
2022-12-31T15:34:27.949Z,3.07
2022-12-31T15:37:36.264Z,2.87
2022-12-31T15:40:50.811Z,1.80
2022-12-31T15:43:58.545Z,2.03
2022-12-31T15:47:30.262Z,2.20
2022-12-31T15:50:37.710Z,1.80
2022-12-31T15:53:42.956Z,1.90
2022-12-31T15:56:47.496Z,1.63
2022-12-31T15:59:49.637Z,1.27
2022-12-31T16:02:55.519Z,2.40
2022-12-31T16:06:04.560Z,2.10
2022-12-31T16:09:19.440Z,1.90
2022-12-31T16:12:29.317Z,2.13
2022-12-31T16:15:35.473Z,1.80
2022-12-31T16:18:43.356Z,2.13
2022-12-31T16:21:45.995Z,2.50
2022-12-31T16:28:23.484Z,2.30
2022-12-31T16:31:27.828Z,2.17
2022-12-31T16:34:37.609Z,1.93
2022-12-31T16:37:39.648Z,1.73
2022-12-31T16:40:45.153Z,1.73
2022-12-31T16:43:50.506Z,2.33
2022-12-31T16:46:56.967Z,1.70
2022-12-31T16:50:05.644Z,2.10
2022-12-31T16:53:08.368Z,1.67
2022-12-31T16:56:10.474Z,2.23
2022-12-31T16:59:24.078Z,1.60
2022-12-31T17:02:44.287Z,1.80
2022-12-31T17:06:09.739Z,1.67
2022-12-31T17:09:30.972Z,1.30
2022-12-31T17:12:53.070Z,1.43
2022-12-31T17:15:59.365Z,2.00
2022-12-31T17:19:01.972Z,1.80
2022-12-31T17:22:07.968Z,1.80
2022-12-31T17:25:27.216Z,1.43
2022-12-31T17:28:38.480Z,2.70
2022-12-31T17:31:57.269Z,2.60
2022-12-31T17:34:59.349Z,2.77
2022-12-31T17:38:22.987Z,2.27
2022-12-31T17:41:27.512Z,2.10
2022-12-31T17:44:29.563Z,2.73
2022-12-31T17:47:37.751Z,2.90
2022-12-31T17:50:54.331Z,2.30
2022-12-31T17:53:56.774Z,2.60
2022-12-31T17:56:58.882Z,2.17
2022-12-31T18:00:05.278Z,1.90
2022-12-31T18:03:14.443Z,1.70
2022-12-31T18:06:17.464Z,1.43
2022-12-31T18:09:19.951Z,1.30
2022-12-31T18:12:22.611Z,1.40
2022-12-31T18:15:25.458Z,1.30
2022-12-31T18:18:29.854Z,1.30
2022-12-31T18:21:34.654Z,1.43
2022-12-31T18:24:36.966Z,1.20
2022-12-31T18:27:41.120Z,1.20
2022-12-31T18:30:44.468Z,1.30
2022-12-31T18:33:49.617Z,1.20
2022-12-31T18:36:51.735Z,1.03
2022-12-31T18:39:53.829Z,1.10
2022-12-31T18:43:01.160Z,1.30
2022-12-31T18:46:10.070Z,0.97
2022-12-31T18:49:12.285Z,1.23
2022-12-31T18:52:20.465Z,0.90
2022-12-31T18:55:32.666Z,1.17
2022-12-31T18:58:34.660Z,1.40
2022-12-31T19:01:41.186Z,1.47
2022-12-31T19:04:43.366Z,1.83
2022-12-31T19:07:45.447Z,1.30
2022-12-31T19:10:50.042Z,1.40
2022-12-31T19:13:52.098Z,1.20
2022-12-31T19:16:54.876Z,1.10
2022-12-31T19:20:01.950Z,1.37
2022-12-31T19:23:03.992Z,0.93
2022-12-31T19:26:06.306Z,1.00
2022-12-31T19:29:20.266Z,1.10
2022-12-31T19:32:22.320Z,1.07
2022-12-31T19:35:24.851Z,0.80
2022-12-31T19:38:29.421Z,1.00
2022-12-31T19:41:31.594Z,1.00
2022-12-31T19:44:33.664Z,0.90
2022-12-31T19:47:35.701Z,1.10
2022-12-31T19:50:37.925Z,1.30
2022-12-31T19:53:40.048Z,1.27
2022-12-31T19:56:42.311Z,1.30
2022-12-31T19:59:44.429Z,1.60
2022-12-31T20:02:48.473Z,1.43
2022-12-31T20:05:50.730Z,1.80
2022-12-31T20:08:52.891Z,1.70
2022-12-31T20:11:55.053Z,1.63
2022-12-31T20:14:57.189Z,1.20
2022-12-31T20:17:59.440Z,1.50
2022-12-31T20:21:01.516Z,1.10
2022-12-31T20:24:03.742Z,1.50
2022-12-31T20:27:07.454Z,1.17
2022-12-31T20:30:10.737Z,1.73
2022-12-31T20:33:18.798Z,1.40
2022-12-31T20:36:21.667Z,1.30
2022-12-31T20:39:23.729Z,1.30
2022-12-31T20:42:25.821Z,1.20
2022-12-31T20:45:27.891Z,1.40
2022-12-31T20:48:32.359Z,1.13
2022-12-31T20:51:35.453Z,0.80
2022-12-31T20:54:37.690Z,0.90
2022-12-31T20:57:40.712Z,1.20
2022-12-31T21:00:51.219Z,0.83
2022-12-31T21:04:09.403Z,1.03
2022-12-31T21:07:11.687Z,1.60
2022-12-31T21:10:15.372Z,0.80
2022-12-31T21:13:23.101Z,1.10
2022-12-31T21:16:26.340Z,0.70
2022-12-31T21:19:28.548Z,0.90
2022-12-31T21:22:30.648Z,0.60
2022-12-31T21:25:32.832Z,0.73
2022-12-31T21:28:35.179Z,0.60
2022-12-31T21:31:37.245Z,0.70
2022-12-31T21:34:39.285Z,0.60
2022-12-31T21:37:57.941Z,0.90
2022-12-31T21:41:03.442Z,0.60
2022-12-31T21:44:05.647Z,0.50
2022-12-31T21:47:36.156Z,0.37
2022-12-31T21:50:40.507Z,0.50
2022-12-31T21:53:42.527Z,0.40
2022-12-31T21:56:44.587Z,0.77
2022-12-31T22:00:39.861Z,0.50
2022-12-31T22:03:28.221Z,0.50
2022-12-31T22:06:32.283Z,0.60
2022-12-31T22:09:34.587Z,0.40
2022-12-31T22:12:36.644Z,0.40
2022-12-31T22:15:41.918Z,0.40
2022-12-31T22:18:44.683Z,0.40
2022-12-31T22:21:46.787Z,0.30
2022-12-31T22:24:48.859Z,0.40
2022-12-31T22:28:27.682Z,0.47
2022-12-31T22:31:16.314Z,0.53
2022-12-31T22:34:18.745Z,0.50
2022-12-31T22:37:55.056Z,0.60
2022-12-31T22:40:42.850Z,0.47
2022-12-31T22:43:47.919Z,0.40
2022-12-31T22:46:50.017Z,0.33
2022-12-31T22:49:52.079Z,0.40
2022-12-31T22:52:54.115Z,0.57
2022-12-31T22:55:56.579Z,0.73
2022-12-31T22:58:58.634Z,0.50
2022-12-31T23:02:00.766Z,0.90
2022-12-31T23:05:15.646Z,0.57
2022-12-31T23:08:23.079Z,0.83
2022-12-31T23:11:25.935Z,0.80
2022-12-31T23:14:46.852Z,0.70
2022-12-31T23:18:07.305Z,0.80
2022-12-31T23:21:28.678Z,1.37
2022-12-31T23:24:30.846Z,1.17
2022-12-31T23:27:32.984Z,0.83
2022-12-31T23:30:37.204Z,1.00
2022-12-31T23:33:39.231Z,1.20
2022-12-31T23:36:41.284Z,0.90
2022-12-31T23:39:43.383Z,1.00
2022-12-31T23:42:45.425Z,1.00
2022-12-31T23:45:49.639Z,1.27
2022-12-31T23:48:52.116Z,1.63
2022-12-31T23:51:54.146Z,1.57
2022-12-31T23:54:56.163Z,1.70
2022-12-31T23:57:58.209Z,2.00
